sensor_id;sensor_type;location;lat;lon;timestamp;pressure;altitude;pressure_sealevel;temperature;humidity
46087;BME280;31824;49.648;8.640;2023-09-30T00:02:53;101150.75;;;16.61;100.00
46087;BME280;31824;49.648;8.640;2023-09-30T00:05:55;101152.75;;;16.43;100.00
46087;BME280;31824;49.648;8.640;2023-09-30T00:08:57;101153.75;;;16.12;100.00
46087;BME280;31824;49.648;8.640;2023-09-30T00:11:59;101161.97;;;15.95;100.00
46087;BME280;31824;49.648;8.640;2023-09-30T00:15:01;101156.41;;;16.02;100.00
46087;BME280;31824;49.648;8.640;2023-09-30T00:18:04;101160.91;;;16.13;100.00
46087;BME280;31824;49.648;8.640;2023-09-30T00:21:07;101171.50;;;16.13;100.00
46087;BME280;31824;49.648;8.640;2023-09-30T00:24:09;101173.91;;;16.10;100.00
46087;BME280;31824;49.648;8.640;2023-09-30T00:27:11;101192.44;;;15.90;100.00
46087;BME280;31824;49.648;8.640;2023-09-30T00:30:13;101192.94;;;15.75;100.00
46087;BME280;31824;49.648;8.640;2023-09-30T00:33:17;101201.00;;;15.77;100.00
46087;BME280;31824;49.648;8.640;2023-09-30T00:36:18;101196.34;;;15.53;100.00
46087;BME280;31824;49.648;8.640;2023-09-30T00:39:20;101199.50;;;15.60;100.00
46087;BME280;31824;49.648;8.640;2023-09-30T00:42:22;101209.22;;;15.69;100.00
46087;BME280;31824;49.648;8.640;2023-09-30T00:45:24;101209.09;;;15.68;100.00
46087;BME280;31824;49.648;8.640;2023-09-30T00:48:27;101210.69;;;15.76;100.00
46087;BME280;31824;49.648;8.640;2023-09-30T00:51:29;101213.88;;;15.72;100.00
46087;BME280;31824;49.648;8.640;2023-09-30T00:54:32;101210.25;;;15.72;100.00
46087;BME280;31824;49.648;8.640;2023-09-30T00:57:34;101213.13;;;15.83;100.00
46087;BME280;31824;49.648;8.640;2023-09-30T01:00:37;101212.31;;;15.84;100.00
46087;BME280;31824;49.648;8.640;2023-09-30T01:03:40;101210.84;;;15.88;100.00
46087;BME280;31824;49.648;8.640;2023-09-30T01:06:42;101215.63;;;15.92;100.00
46087;BME280;31824;49.648;8.640;2023-09-30T01:09:44;101217.63;;;15.84;100.00
46087;BME280;31824;49.648;8.640;2023-09-30T01:12:46;101207.66;;;15.92;100.00
46087;BME280;31824;49.648;8.640;2023-09-30T01:15:48;101212.56;;;15.98;100.00
46087;BME280;31824;49.648;8.640;2023-09-30T01:18:51;101201.84;;;16.07;100.00
46087;BME280;31824;49.648;8.640;2023-09-30T01:21:55;101200.28;;;15.98;100.00
46087;BME280;31824;49.648;8.640;2023-09-30T01:25:03;101197.34;;;16.06;100.00
46087;BME280;31824;49.648;8.640;2023-09-30T01:28:09;101198.44;;;16.08;100.00
46087;BME280;31824;49.648;8.640;2023-09-30T01:31:11;101203.72;;;16.08;100.00
46087;BME280;31824;49.648;8.640;2023-09-30T01:34:13;101211.28;;;15.93;100.00
46087;BME280;31824;49.648;8.640;2023-09-30T01:37:17;101219.09;;;16.01;100.00
46087;BME280;31824;49.648;8.640;2023-09-30T01:40:19;101218.94;;;16.00;100.00
46087;BME280;31824;49.648;8.640;2023-09-30T01:43:20;101209.53;;;15.83;100.00
46087;BME280;31824;49.648;8.640;2023-09-30T01:46:22;101214.19;;;15.96;100.00
46087;BME280;31824;49.648;8.640;2023-09-30T01:49:24;101211.25;;;16.03;100.00
46087;BME280;31824;49.648;8.640;2023-09-30T01:52:31;101216.16;;;16.09;100.00
46087;BME280;31824;49.648;8.640;2023-09-30T01:55:33;101215.50;;;16.11;100.00
46087;BME280;31824;49.648;8.640;2023-09-30T01:58:35;101226.91;;;16.10;100.00
46087;BME280;31824;49.648;8.640;2023-09-30T02:01:37;101218.44;;;16.14;100.00
46087;BME280;31824;49.648;8.640;2023-09-30T02:04:38;101213.41;;;16.17;100.00
46087;BME280;31824;49.648;8.640;2023-09-30T02:07:42;101206.09;;;15.94;100.00
46087;BME280;31824;49.648;8.640;2023-09-30T02:10:44;101202.00;;;16.08;100.00
46087;BME280;31824;49.648;8.640;2023-09-30T02:13:46;101213.53;;;16.19;100.00
46087;BME280;31824;49.648;8.640;2023-09-30T02:16:48;101204.66;;;16.18;100.00
46087;BME280;31824;49.648;8.640;2023-09-30T02:19:49;101208.63;;;16.13;100.00
46087;BME280;31824;49.648;8.640;2023-09-30T02:22:52;101221.09;;;16.14;100.00
46087;BME280;31824;49.648;8.640;2023-09-30T02:25:56;101220.13;;;16.14;100.00
46087;BME280;31824;49.648;8.640;2023-09-30T02:28:57;101218.69;;;16.17;100.00
46087;BME280;31824;49.648;8.640;2023-09-30T02:31:59;101226.22;;;16.13;100.00
46087;BME280;31824;49.648;8.640;2023-09-30T02:35:01;101239.00;;;16.17;100.00
46087;BME280;31824;49.648;8.640;2023-09-30T02:38:04;101233.81;;;16.18;100.00
46087;BME280;31824;49.648;8.640;2023-09-30T02:41:06;101237.50;;;16.20;100.00
46087;BME280;31824;49.648;8.640;2023-09-30T02:44:08;101231.41;;;16.22;100.00
46087;BME280;31824;49.648;8.640;2023-09-30T02:47:10;101236.84;;;16.13;100.00
46087;BME280;31824;49.648;8.640;2023-09-30T02:50:12;101246.41;;;16.11;100.00
46087;BME280;31824;49.648;8.640;2023-09-30T02:53:15;101251.44;;;16.18;100.00
46087;BME280;31824;49.648;8.640;2023-09-30T02:56:17;101253.16;;;16.17;100.00
46087;BME280;31824;49.648;8.640;2023-09-30T02:59:20;101244.78;;;16.13;100.00
46087;BME280;31824;49.648;8.640;2023-09-30T03:02:24;101258.03;;;16.13;100.00
46087;BME280;31824;49.648;8.640;2023-09-30T03:05:26;101262.16;;;15.99;100.00
46087;BME280;31824;49.648;8.640;2023-09-30T03:08:30;101265.75;;;15.99;100.00
46087;BME280;31824;49.648;8.640;2023-09-30T03:11:32;101260.41;;;15.89;100.00
46087;BME280;31824;49.648;8.640;2023-09-30T03:14:35;101249.84;;;15.99;100.00
46087;BME280;31824;49.648;8.640;2023-09-30T03:17:37;101254.19;;;15.99;100.00
46087;BME280;31824;49.648;8.640;2023-09-30T03:20:39;101258.44;;;15.97;100.00
46087;BME280;31824;49.648;8.640;2023-09-30T03:23:43;101245.72;;;15.93;100.00
46087;BME280;31824;49.648;8.640;2023-09-30T03:26:45;101239.22;;;15.89;100.00
46087;BME280;31824;49.648;8.640;2023-09-30T03:29:47;101233.81;;;15.58;100.00
46087;BME280;31824;49.648;8.640;2023-09-30T03:32:48;101233.38;;;15.43;100.00
46087;BME280;31824;49.648;8.640;2023-09-30T03:35:50;101232.97;;;15.39;100.00
46087;BME280;31824;49.648;8.640;2023-09-30T03:38:55;101238.78;;;15.05;100.00
46087;BME280;31824;49.648;8.640;2023-09-30T03:41:57;101251.59;;;15.00;100.00
46087;BME280;31824;49.648;8.640;2023-09-30T03:45:00;101259.41;;;14.99;100.00
46087;BME280;31824;49.648;8.640;2023-09-30T03:48:03;101262.22;;;15.11;100.00
46087;BME280;31824;49.648;8.640;2023-09-30T03:51:08;101270.63;;;14.96;100.00
46087;BME280;31824;49.648;8.640;2023-09-30T03:54:12;101276.31;;;14.72;100.00
46087;BME280;31824;49.648;8.640;2023-09-30T03:57:13;101280.69;;;14.62;100.00
46087;BME280;31824;49.648;8.640;2023-09-30T04:00:18;101278.91;;;14.52;100.00
46087;BME280;31824;49.648;8.640;2023-09-30T04:03:22;101278.91;;;14.52;100.00
46087;BME280;31824;49.648;8.640;2023-09-30T04:06:25;101276.34;;;14.63;100.00
46087;BME280;31824;49.648;8.640;2023-09-30T04:09:28;101280.56;;;14.61;100.00
46087;BME280;31824;49.648;8.640;2023-09-30T04:12:30;101274.31;;;14.41;100.00
46087;BME280;31824;49.648;8.640;2023-09-30T04:15:34;101275.63;;;14.55;100.00
46087;BME280;31824;49.648;8.640;2023-09-30T04:18:38;101276.16;;;14.42;100.00
46087;BME280;31824;49.648;8.640;2023-09-30T04:21:42;101276.53;;;14.37;100.00
46087;BME280;31824;49.648;8.640;2023-09-30T04:24:46;101277.06;;;14.24;100.00
46087;BME280;31824;49.648;8.640;2023-09-30T04:27:48;101279.38;;;14.29;100.00
46087;BME280;31824;49.648;8.640;2023-09-30T04:30:51;101278.63;;;14.22;100.00
46087;BME280;31824;49.648;8.640;2023-09-30T04:33:53;101278.34;;;14.18;100.00
46087;BME280;31824;49.648;8.640;2023-09-30T04:36:55;101269.78;;;14.21;100.00
46087;BME280;31824;49.648;8.640;2023-09-30T04:39:58;101279.28;;;14.19;100.00
46087;BME280;31824;49.648;8.640;2023-09-30T04:43:00;101285.94;;;14.24;100.00
46087;BME280;31824;49.648;8.640;2023-09-30T04:46:02;101289.16;;;14.30;100.00
46087;BME280;31824;49.648;8.640;2023-09-30T04:49:03;101301.44;;;14.30;100.00
46087;BME280;31824;49.648;8.640;2023-09-30T04:52:06;101297.72;;;14.28;100.00
46087;BME280;31824;49.648;8.640;2023-09-30T04:55:11;101296.53;;;14.43;100.00
46087;BME280;31824;49.648;8.640;2023-09-30T04:58:14;101285.13;;;14.53;100.00
46087;BME280;31824;49.648;8.640;2023-09-30T05:01:15;101277.03;;;14.51;100.00
46087;BME280;31824;49.648;8.640;2023-09-30T05:04:21;101272.97;;;14.55;100.00
46087;BME280;31824;49.648;8.640;2023-09-30T05:07:25;101268.75;;;14.57;100.00
46087;BME280;31824;49.648;8.640;2023-09-30T05:10:31;101269.16;;;14.71;100.00
46087;BME280;31824;49.648;8.640;2023-09-30T05:13:32;101274.81;;;14.56;100.00
46087;BME280;31824;49.648;8.640;2023-09-30T05:16:35;101270.47;;;14.57;100.00
46087;BME280;31824;49.648;8.640;2023-09-30T05:19:38;101276.19;;;14.61;100.00
46087;BME280;31824;49.648;8.640;2023-09-30T05:22:40;101287.53;;;14.60;100.00
46087;BME280;31824;49.648;8.640;2023-09-30T05:25:45;101292.81;;;14.69;100.00
46087;BME280;31824;49.648;8.640;2023-09-30T05:28:47;101299.16;;;14.71;100.00
46087;BME280;31824;49.648;8.640;2023-09-30T05:31:49;101300.09;;;14.72;100.00
46087;BME280;31824;49.648;8.640;2023-09-30T05:34:51;101306.94;;;14.69;100.00
46087;BME280;31824;49.648;8.640;2023-09-30T05:37:54;101306.59;;;14.75;100.00
46087;BME280;31824;49.648;8.640;2023-09-30T05:40:58;101316.53;;;14.78;100.00
46087;BME280;31824;49.648;8.640;2023-09-30T05:44:03;101317.81;;;14.73;100.00
46087;BME280;31824;49.648;8.640;2023-09-30T05:47:05;101314.75;;;14.68;100.00
46087;BME280;31824;49.648;8.640;2023-09-30T05:50:07;101310.50;;;14.51;100.00
46087;BME280;31824;49.648;8.640;2023-09-30T05:53:10;101319.34;;;14.51;100.00
46087;BME280;31824;49.648;8.640;2023-09-30T05:56:13;101324.91;;;14.63;100.00
46087;BME280;31824;49.648;8.640;2023-09-30T05:59:16;101325.34;;;14.68;100.00
46087;BME280;31824;49.648;8.640;2023-09-30T06:02:18;101324.25;;;14.66;100.00
46087;BME280;31824;49.648;8.640;2023-09-30T06:05:21;101305.00;;;14.58;100.00
46087;BME280;31824;49.648;8.640;2023-09-30T06:08:24;101320.47;;;14.45;100.00
46087;BME280;31824;49.648;8.640;2023-09-30T06:11:27;101329.31;;;14.45;100.00
46087;BME280;31824;49.648;8.640;2023-09-30T06:14:30;101338.50;;;14.49;100.00
46087;BME280;31824;49.648;8.640;2023-09-30T06:17:33;101342.69;;;14.47;100.00
46087;BME280;31824;49.648;8.640;2023-09-30T06:20:35;101342.06;;;14.49;100.00
46087;BME280;31824;49.648;8.640;2023-09-30T06:23:37;101339.66;;;14.61;100.00
46087;BME280;31824;49.648;8.640;2023-09-30T06:26:40;101342.44;;;14.72;100.00
46087;BME280;31824;49.648;8.640;2023-09-30T06:29:42;101339.16;;;14.74;100.00
46087;BME280;31824;49.648;8.640;2023-09-30T06:32:44;101337.78;;;14.69;100.00
46087;BME280;31824;49.648;8.640;2023-09-30T06:35:47;101327.34;;;14.71;100.00
46087;BME280;31824;49.648;8.640;2023-09-30T06:38:54;101343.06;;;14.69;100.00
46087;BME280;31824;49.648;8.640;2023-09-30T06:41:58;101360.88;;;14.52;100.00
46087;BME280;31824;49.648;8.640;2023-09-30T06:45:00;101369.13;;;14.47;100.00
46087;BME280;31824;49.648;8.640;2023-09-30T06:48:02;101369.59;;;14.51;100.00
46087;BME280;31824;49.648;8.640;2023-09-30T06:51:04;101364.22;;;14.60;100.00
46087;BME280;31824;49.648;8.640;2023-09-30T06:54:06;101372.31;;;14.62;100.00
46087;BME280;31824;49.648;8.640;2023-09-30T06:57:12;101369.19;;;14.66;100.00
46087;BME280;31824;49.648;8.640;2023-09-30T07:00:14;101360.59;;;14.77;100.00
46087;BME280;31824;49.648;8.640;2023-09-30T07:03:16;101354.72;;;14.71;100.00
46087;BME280;31824;49.648;8.640;2023-09-30T07:06:22;101359.72;;;14.68;100.00
46087;BME280;31824;49.648;8.640;2023-09-30T07:09:24;101368.59;;;14.60;100.00
46087;BME280;31824;49.648;8.640;2023-09-30T07:12:27;101365.97;;;14.60;100.00
46087;BME280;31824;49.648;8.640;2023-09-30T07:15:33;101377.03;;;14.56;100.00
46087;BME280;31824;49.648;8.640;2023-09-30T07:18:35;101380.44;;;14.55;100.00
46087;BME280;31824;49.648;8.640;2023-09-30T07:21:36;101393.03;;;14.57;100.00
46087;BME280;31824;49.648;8.640;2023-09-30T07:24:39;101399.31;;;14.77;100.00
46087;BME280;31824;49.648;8.640;2023-09-30T07:27:42;101395.91;;;14.97;100.00
46087;BME280;31824;49.648;8.640;2023-09-30T07:30:44;101392.59;;;15.08;100.00
46087;BME280;31824;49.648;8.640;2023-09-30T07:33:46;101383.81;;;15.28;100.00
46087;BME280;31824;49.648;8.640;2023-09-30T07:36:48;101370.28;;;15.44;100.00
46087;BME280;31824;49.648;8.640;2023-09-30T07:39:50;101380.94;;;15.55;100.00
46087;BME280;31824;49.648;8.640;2023-09-30T07:42:53;101381.94;;;15.65;100.00
46087;BME280;31824;49.648;8.640;2023-09-30T07:45:55;101379.41;;;15.86;100.00
46087;BME280;31824;49.648;8.640;2023-09-30T07:49:00;101393.88;;;16.00;100.00
46087;BME280;31824;49.648;8.640;2023-09-30T07:52:02;101392.41;;;15.93;100.00
46087;BME280;31824;49.648;8.640;2023-09-30T07:55:06;101394.81;;;16.00;100.00
46087;BME280;31824;49.648;8.640;2023-09-30T07:58:09;101392.59;;;16.15;100.00
46087;BME280;31824;49.648;8.640;2023-09-30T08:01:11;101381.72;;;16.02;100.00
46087;BME280;31824;49.648;8.640;2023-09-30T08:04:13;101378.16;;;16.12;100.00
46087;BME280;31824;49.648;8.640;2023-09-30T08:07:15;101368.22;;;16.09;100.00
46087;BME280;31824;49.648;8.640;2023-09-30T08:10:16;101385.47;;;16.14;100.00
46087;BME280;31824;49.648;8.640;2023-09-30T08:13:20;101379.50;;;16.17;100.00
46087;BME280;31824;49.648;8.640;2023-09-30T08:16:21;101392.06;;;16.09;100.00
46087;BME280;31824;49.648;8.640;2023-09-30T08:19:24;101386.91;;;16.11;100.00
46087;BME280;31824;49.648;8.640;2023-09-30T08:22:26;101374.28;;;16.08;100.00
46087;BME280;31824;49.648;8.640;2023-09-30T08:25:29;101380.91;;;16.03;100.00
46087;BME280;31824;49.648;8.640;2023-09-30T08:28:32;101380.69;;;16.10;100.00
46087;BME280;31824;49.648;8.640;2023-09-30T08:31:34;101382.00;;;16.15;100.00
46087;BME280;31824;49.648;8.640;2023-09-30T08:34:36;101390.50;;;16.22;100.00
46087;BME280;31824;49.648;8.640;2023-09-30T08:37:38;101395.41;;;16.27;100.00
46087;BME280;31824;49.648;8.640;2023-09-30T08:40:40;101398.41;;;16.11;100.00
46087;BME280;31824;49.648;8.640;2023-09-30T08:43:44;101399.25;;;16.10;100.00
46087;BME280;31824;49.648;8.640;2023-09-30T08:46:46;101408.53;;;16.26;100.00
46087;BME280;31824;49.648;8.640;2023-09-30T08:49:50;101409.88;;;16.31;100.00
46087;BME280;31824;49.648;8.640;2023-09-30T08:52:58;101410.84;;;16.42;100.00
46087;BME280;31824;49.648;8.640;2023-09-30T08:56:02;101413.25;;;16.59;100.00
46087;BME280;31824;49.648;8.640;2023-09-30T08:59:11;101413.91;;;16.57;100.00
46087;BME280;31824;49.648;8.640;2023-09-30T09:02:13;101405.44;;;16.61;100.00
46087;BME280;31824;49.648;8.640;2023-09-30T09:05:15;101406.50;;;16.73;100.00
46087;BME280;31824;49.648;8.640;2023-09-30T09:08:17;101411.03;;;16.74;100.00
46087;BME280;31824;49.648;8.640;2023-09-30T09:11:25;101415.81;;;16.78;100.00
46087;BME280;31824;49.648;8.640;2023-09-30T09:14:38;101423.22;;;16.82;100.00
46087;BME280;31824;49.648;8.640;2023-09-30T09:17:41;101415.09;;;16.81;100.00
46087;BME280;31824;49.648;8.640;2023-09-30T09:20:46;101404.94;;;16.96;100.00
46087;BME280;31824;49.648;8.640;2023-09-30T09:23:50;101404.16;;;17.07;100.00
46087;BME280;31824;49.648;8.640;2023-09-30T09:27:03;101418.34;;;17.18;100.00
46087;BME280;31824;49.648;8.640;2023-09-30T09:30:17;101421.09;;;17.30;100.00
46087;BME280;31824;49.648;8.640;2023-09-30T09:33:19;101421.00;;;17.08;100.00
46087;BME280;31824;49.648;8.640;2023-09-30T09:36:21;101416.88;;;17.11;100.00
46087;BME280;31824;49.648;8.640;2023-09-30T09:39:39;101404.78;;;17.35;100.00
46087;BME280;31824;49.648;8.640;2023-09-30T09:42:41;101415.53;;;17.27;100.00
46087;BME280;31824;49.648;8.640;2023-09-30T09:45:44;101412.63;;;17.34;100.00
46087;BME280;31824;49.648;8.640;2023-09-30T09:48:48;101405.41;;;17.43;100.00
46087;BME280;31824;49.648;8.640;2023-09-30T09:51:50;101418.53;;;17.52;100.00
46087;BME280;31824;49.648;8.640;2023-09-30T09:54:54;101413.78;;;17.37;100.00
46087;BME280;31824;49.648;8.640;2023-09-30T09:57:57;101419.91;;;17.79;100.00
46087;BME280;31824;49.648;8.640;2023-09-30T10:01:02;101425.59;;;17.84;100.00
46087;BME280;31824;49.648;8.640;2023-09-30T10:04:04;101414.44;;;17.98;100.00
46087;BME280;31824;49.648;8.640;2023-09-30T10:07:07;101418.63;;;18.07;100.00
46087;BME280;31824;49.648;8.640;2023-09-30T10:10:14;101417.34;;;18.23;100.00
46087;BME280;31824;49.648;8.640;2023-09-30T10:13:51;101404.22;;;18.15;100.00
46087;BME280;31824;49.648;8.640;2023-09-30T10:16:58;101399.81;;;17.93;100.00
46087;BME280;31824;49.648;8.640;2023-09-30T10:20:04;101386.47;;;18.26;100.00
46087;BME280;31824;49.648;8.640;2023-09-30T10:23:25;101378.28;;;18.22;100.00
46087;BME280;31824;49.648;8.640;2023-09-30T10:26:27;101382.00;;;18.59;100.00
46087;BME280;31824;49.648;8.640;2023-09-30T10:29:39;101385.44;;;18.46;100.00
46087;BME280;31824;49.648;8.640;2023-09-30T10:33:11;101383.44;;;18.43;100.00
46087;BME280;31824;49.648;8.640;2023-09-30T10:36:26;101368.97;;;18.73;100.00
46087;BME280;31824;49.648;8.640;2023-09-30T10:39:53;101377.28;;;18.66;100.00
46087;BME280;31824;49.648;8.640;2023-09-30T10:42:56;101365.00;;;18.56;100.00
46087;BME280;31824;49.648;8.640;2023-09-30T10:45:59;101364.44;;;18.38;100.00
46087;BME280;31824;49.648;8.640;2023-09-30T10:49:16;101365.69;;;18.54;100.00
46087;BME280;31824;49.648;8.640;2023-09-30T10:52:22;101360.13;;;18.51;100.00
46087;BME280;31824;49.648;8.640;2023-09-30T10:55:27;101366.31;;;18.39;100.00
46087;BME280;31824;49.648;8.640;2023-09-30T10:58:39;101355.88;;;18.65;100.00
46087;BME280;31824;49.648;8.640;2023-09-30T11:01:41;101361.59;;;18.81;100.00
46087;BME280;31824;49.648;8.640;2023-09-30T11:04:48;101372.53;;;18.96;100.00
46087;BME280;31824;49.648;8.640;2023-09-30T11:07:52;101364.69;;;19.33;100.00
46087;BME280;31824;49.648;8.640;2023-09-30T11:10:55;101371.66;;;19.19;100.00
46087;BME280;31824;49.648;8.640;2023-09-30T11:13:57;101369.75;;;19.06;100.00
46087;BME280;31824;49.648;8.640;2023-09-30T11:17:01;101374.44;;;19.33;100.00
46087;BME280;31824;49.648;8.640;2023-09-30T11:20:07;101371.75;;;19.45;100.00
46087;BME280;31824;49.648;8.640;2023-09-30T11:23:09;101370.00;;;19.21;100.00
46087;BME280;31824;49.648;8.640;2023-09-30T11:26:12;101367.81;;;19.28;100.00
46087;BME280;31824;49.648;8.640;2023-09-30T11:29:16;101371.88;;;19.34;100.00
46087;BME280;31824;49.648;8.640;2023-09-30T11:32:23;101378.16;;;19.23;100.00
46087;BME280;31824;49.648;8.640;2023-09-30T11:35:29;101369.66;;;19.17;100.00
46087;BME280;31824;49.648;8.640;2023-09-30T11:38:35;101375.69;;;19.14;100.00
46087;BME280;31824;49.648;8.640;2023-09-30T11:41:38;101383.47;;;19.82;100.00
46087;BME280;31824;49.648;8.640;2023-09-30T11:44:44;101386.03;;;19.45;100.00
46087;BME280;31824;49.648;8.640;2023-09-30T11:47:48;101374.91;;;19.63;100.00
46087;BME280;31824;49.648;8.640;2023-09-30T11:50:52;101362.16;;;19.59;100.00
46087;BME280;31824;49.648;8.640;2023-09-30T11:53:55;101365.59;;;19.93;100.00
46087;BME280;31824;49.648;8.640;2023-09-30T11:56:59;101372.81;;;19.59;100.00
46087;BME280;31824;49.648;8.640;2023-09-30T12:00:04;101363.19;;;19.72;100.00
46087;BME280;31824;49.648;8.640;2023-09-30T12:03:15;101368.16;;;19.92;100.00
46087;BME280;31824;49.648;8.640;2023-09-30T12:06:19;101355.84;;;19.94;100.00
46087;BME280;31824;49.648;8.640;2023-09-30T12:09:21;101352.63;;;19.98;100.00
46087;BME280;31824;49.648;8.640;2023-09-30T12:12:28;101371.59;;;20.14;100.00
46087;BME280;31824;49.648;8.640;2023-09-30T12:15:30;101371.31;;;19.86;100.00
46087;BME280;31824;49.648;8.640;2023-09-30T12:18:32;101373.09;;;20.11;100.00
46087;BME280;31824;49.648;8.640;2023-09-30T12:21:36;101367.69;;;20.71;100.00
46087;BME280;31824;49.648;8.640;2023-09-30T12:24:38;101352.47;;;20.70;100.00
46087;BME280;31824;49.648;8.640;2023-09-30T12:27:41;101351.84;;;20.24;100.00
46087;BME280;31824;49.648;8.640;2023-09-30T12:30:43;101353.84;;;20.03;100.00
46087;BME280;31824;49.648;8.640;2023-09-30T12:33:45;101349.91;;;20.60;100.00
46087;BME280;31824;49.648;8.640;2023-09-30T12:36:53;101336.81;;;20.38;100.00
46087;BME280;31824;49.648;8.640;2023-09-30T12:39:55;101327.03;;;20.89;100.00
46087;BME280;31824;49.648;8.640;2023-09-30T12:42:57;101327.97;;;21.03;100.00
46087;BME280;31824;49.648;8.640;2023-09-30T12:45:59;101334.19;;;20.51;100.00
46087;BME280;31824;49.648;8.640;2023-09-30T12:49:01;101316.22;;;20.87;100.00
46087;BME280;31824;49.648;8.640;2023-09-30T12:52:05;101323.41;;;20.75;100.00
46087;BME280;31824;49.648;8.640;2023-09-30T12:55:08;101319.94;;;20.64;100.00
46087;BME280;31824;49.648;8.640;2023-09-30T12:58:11;101320.75;;;20.50;100.00
46087;BME280;31824;49.648;8.640;2023-09-30T13:01:13;101315.63;;;20.91;100.00
46087;BME280;31824;49.648;8.640;2023-09-30T13:04:23;101327.16;;;21.17;100.00
46087;BME280;31824;49.648;8.640;2023-09-30T13:07:28;101317.81;;;21.51;100.00
46087;BME280;31824;49.648;8.640;2023-09-30T13:10:29;101333.03;;;21.38;100.00
46087;BME280;31824;49.648;8.640;2023-09-30T13:13:32;101337.41;;;20.98;100.00
46087;BME280;31824;49.648;8.640;2023-09-30T13:16:35;101335.81;;;21.40;100.00
46087;BME280;31824;49.648;8.640;2023-09-30T13:19:37;101323.09;;;20.70;100.00
46087;BME280;31824;49.648;8.640;2023-09-30T13:22:40;101315.63;;;20.91;100.00
46087;BME280;31824;49.648;8.640;2023-09-30T13:25:42;101307.84;;;20.95;100.00
46087;BME280;31824;49.648;8.640;2023-09-30T13:28:44;101301.88;;;21.25;100.00
46087;BME280;31824;49.648;8.640;2023-09-30T13:31:46;101306.81;;;21.19;100.00
46087;BME280;31824;49.648;8.640;2023-09-30T13:34:47;101305.19;;;21.08;100.00
46087;BME280;31824;49.648;8.640;2023-09-30T13:37:51;101293.28;;;21.16;100.00
46087;BME280;31824;49.648;8.640;2023-09-30T13:40:53;101288.09;;;21.06;100.00
46087;BME280;31824;49.648;8.640;2023-09-30T13:43:55;101306.81;;;20.67;100.00
46087;BME280;31824;49.648;8.640;2023-09-30T13:46:57;101293.34;;;20.52;100.00
46087;BME280;31824;49.648;8.640;2023-09-30T13:49:58;101288.09;;;20.92;100.00
46087;BME280;31824;49.648;8.640;2023-09-30T13:53:02;101285.66;;;20.96;100.00
46087;BME280;31824;49.648;8.640;2023-09-30T13:56:06;101284.47;;;20.53;100.00
46087;BME280;31824;49.648;8.640;2023-09-30T13:59:08;101273.69;;;20.77;100.00
46087;BME280;31824;49.648;8.640;2023-09-30T14:02:12;101274.34;;;20.61;100.00
46087;BME280;31824;49.648;8.640;2023-09-30T14:05:14;101276.81;;;21.23;100.00
46087;BME280;31824;49.648;8.640;2023-09-30T14:08:17;101274.56;;;21.16;100.00
46087;BME280;31824;49.648;8.640;2023-09-30T14:11:19;101279.25;;;20.80;100.00
46087;BME280;31824;49.648;8.640;2023-09-30T14:14:21;101281.00;;;21.06;100.00
46087;BME280;31824;49.648;8.640;2023-09-30T14:17:23;101281.22;;;21.36;100.00
46087;BME280;31824;49.648;8.640;2023-09-30T14:20:25;101269.63;;;20.96;100.00
46087;BME280;31824;49.648;8.640;2023-09-30T14:23:28;101277.63;;;21.22;100.00
46087;BME280;31824;49.648;8.640;2023-09-30T14:26:30;101272.19;;;21.34;100.00
46087;BME280;31824;49.648;8.640;2023-09-30T14:29:33;101265.41;;;21.39;100.00
46087;BME280;31824;49.648;8.640;2023-09-30T14:32:35;101250.00;;;21.77;100.00
46087;BME280;31824;49.648;8.640;2023-09-30T14:35:37;101248.84;;;21.32;100.00
46087;BME280;31824;49.648;8.640;2023-09-30T14:38:40;101243.69;;;21.21;100.00
46087;BME280;31824;49.648;8.640;2023-09-30T14:41:42;101241.25;;;20.84;100.00
46087;BME280;31824;49.648;8.640;2023-09-30T14:44:44;101235.50;;;20.78;100.00
46087;BME280;31824;49.648;8.640;2023-09-30T14:47:46;101237.75;;;20.33;100.00
46087;BME280;31824;49.648;8.640;2023-09-30T14:50:49;101240.97;;;20.16;100.00
46087;BME280;31824;49.648;8.640;2023-09-30T14:53:52;101238.91;;;20.12;100.00
46087;BME280;31824;49.648;8.640;2023-09-30T14:56:54;101246.88;;;19.86;100.00
46087;BME280;31824;49.648;8.640;2023-09-30T14:59:57;101244.75;;;20.06;100.00
46087;BME280;31824;49.648;8.640;2023-09-30T15:02:59;101240.34;;;19.95;100.00
46087;BME280;31824;49.648;8.640;2023-09-30T15:06:01;101243.19;;;19.84;100.00
46087;BME280;31824;49.648;8.640;2023-09-30T15:09:05;101239.72;;;19.73;100.00
46087;BME280;31824;49.648;8.640;2023-09-30T15:12:07;101236.28;;;19.63;100.00
46087;BME280;31824;49.648;8.640;2023-09-30T15:15:09;101234.22;;;19.59;100.00
46087;BME280;31824;49.648;8.640;2023-09-30T15:18:11;101235.41;;;19.38;100.00
46087;BME280;31824;49.648;8.640;2023-09-30T15:21:12;101238.44;;;19.31;100.00
46087;BME280;31824;49.648;8.640;2023-09-30T15:24:16;101226.88;;;19.19;100.00
46087;BME280;31824;49.648;8.640;2023-09-30T15:27:18;101233.69;;;19.03;100.00
46087;BME280;31824;49.648;8.640;2023-09-30T15:30:20;101228.75;;;19.08;100.00
46087;BME280;31824;49.648;8.640;2023-09-30T15:33:22;101228.97;;;19.23;100.00
46087;BME280;31824;49.648;8.640;2023-09-30T15:36:25;101224.88;;;19.28;100.00
46087;BME280;31824;49.648;8.640;2023-09-30T15:39:37;101216.81;;;18.91;100.00
46087;BME280;31824;49.648;8.640;2023-09-30T15:42:39;101220.38;;;18.92;100.00
46087;BME280;31824;49.648;8.640;2023-09-30T15:45:41;101218.03;;;18.84;100.00
46087;BME280;31824;49.648;8.640;2023-09-30T15:48:43;101222.47;;;18.84;100.00